Dublin, Ireland

11:40 PM IST on July 31, 2015 (GMT +0100)
Paulie - Swords West | | Change Station
CLOSE
Current Station
Personal Weather Station
Location: Swords, DUBLIN
Elevation: 138 ft
Nearby Weather Stations

Elev 138 ft 53.46 °N, 6.25 °W | Updated 25 seconds ago

Mostly Cloudy
Mostly Cloudy
56.8 °F
Feels Like 56.8 °F
N
0.0
Wind Variable Wind from SSW
Gusts 0.0 mph

Today
High -- | Low -- °F
--% Chance of Precip.
Yesterday
High -- | Low -- °F
Precip. -- in
5:38 AM 9:23 PM
Full, 100% visible
Pressure 29.89 in
Visibility 6.2 miles
Clouds Few 1300 ft
Mostly Cloudy 6000 ft
Dew Point 56 °F
Humidity 98%
Rainfall 0.04 in
Snow Depth Not available.
UV 0.0 out of 12
Pollen Not available.
Air Quality Not available.
Flu Activity Not available.
METAR EIDW 312230Z 23010KT 9999 FEW013 BKN060 12/11 Q1012 NOSIG

More Conditions Fewer Conditions

Pressure 29.89 in
Visibility 6.2 miles
Clouds Few 1300 ft
Mostly Cloudy 6000 ft
Dew Point 56 °F
Humidity 98%
Rainfall 0.04 in
Snow Depth Not available.
UV 0.0 out of 12
Pollen Not available.
Air Quality Not available.
Flu Activity Not available.
METAR EIDW 312230Z 23010KT 9999 FEW013 BKN060 12/11 Q1012 NOSIG

More Conditions Fewer Conditions

10-Day Weather Forecast

×

Almanac

Astronomy

Jul. 31, 2015 Rise Set
Actual Time
Civil Twilight
Nautical Twilight
Astronomical Twilight
Moon
Length of Visible Light
Length of Day
Tomorrow will be .
, % of the Moon is Illuminated

Today's Extremes

Country Highs Country Lows

Community

WunderPhotos

Upload Photos

1,842,764 photos uploaded!

WunderBlogs® & News

Nearby

Air Quality

  Air Quality AQ Index Pollutant
Not available.

Snow Depth

Station Depth Elevation

Earthquake Activity

City Distance Mag. Time & Date
Minimum magnitude displayed is 2.5.

Coastal Water Temperatures

Place Temperature

Stations

Nearby Weather Stations

Station Location Temp. Windchill Dew Point Humidity Wind Precip. Elev Updated Type